sensor_id;sensor_type;location;lat;lon;timestamp;P1;durP1;ratioP1;P2;durP2;ratioP2
42244;SDS011;27912;51.828;5.688;2022-09-13T00:00:03;13.43;;;9.75;;
42244;SDS011;27912;51.828;5.688;2022-09-13T00:02:30;10.32;;;9.25;;
42244;SDS011;27912;51.828;5.688;2022-09-13T00:04:56;12.48;;;8.88;;
42244;SDS011;27912;51.828;5.688;2022-09-13T00:07:22;13.57;;;9.50;;
42244;SDS011;27912;51.828;5.688;2022-09-13T00:09:47;10.52;;;8.85;;
42244;SDS011;27912;51.828;5.688;2022-09-13T00:12:13;12.48;;;9.20;;
42244;SDS011;27912;51.828;5.688;2022-09-13T00:14:39;11.52;;;9.30;;
42244;SDS011;27912;51.828;5.688;2022-09-13T00:17:05;10.82;;;9.27;;
42244;SDS011;27912;51.828;5.688;2022-09-13T00:19:31;9.90;;;8.38;;
42244;SDS011;27912;51.828;5.688;2022-09-13T00:21:57;13.35;;;9.98;;
42244;SDS011;27912;51.828;5.688;2022-09-13T00:24:22;10.20;;;9.05;;
42244;SDS011;27912;51.828;5.688;2022-09-13T00:26:48;12.50;;;9.18;;
42244;SDS011;27912;51.828;5.688;2022-09-13T00:29:13;12.02;;;8.65;;
42244;SDS011;27912;51.828;5.688;2022-09-13T00:31:39;12.20;;;9.35;;
42244;SDS011;27912;51.828;5.688;2022-09-13T00:34:04;11.88;;;10.32;;
42244;SDS011;27912;51.828;5.688;2022-09-13T00:36:30;12.00;;;10.23;;
42244;SDS011;27912;51.828;5.688;2022-09-13T00:38:55;16.23;;;11.20;;
42244;SDS011;27912;51.828;5.688;2022-09-13T00:41:22;11.40;;;8.98;;
42244;SDS011;27912;51.828;5.688;2022-09-13T00:43:58;12.77;;;9.73;;
42244;SDS011;27912;51.828;5.688;2022-09-13T00:46:39;12.30;;;10.13;;
42244;SDS011;27912;51.828;5.688;2022-09-13T00:49:20;11.27;;;9.43;;
42244;SDS011;27912;51.828;5.688;2022-09-13T00:51:56;13.50;;;9.68;;
42244;SDS011;27912;51.828;5.688;2022-09-13T00:54:25;13.43;;;9.70;;
42244;SDS011;27912;51.828;5.688;2022-09-13T00:56:56;14.68;;;9.60;;
42244;SDS011;27912;51.828;5.688;2022-09-13T00:59:29;17.63;;;10.23;;
42244;SDS011;27912;51.828;5.688;2022-09-13T01:01:58;10.93;;;9.80;;
42244;SDS011;27912;51.828;5.688;2022-09-13T01:04:26;12.45;;;10.38;;
42244;SDS011;27912;51.828;5.688;2022-09-13T01:06:55;12.35;;;9.48;;
42244;SDS011;27912;51.828;5.688;2022-09-13T01:09:26;12.13;;;10.00;;
42244;SDS011;27912;51.828;5.688;2022-09-13T01:11:59;12.75;;;9.00;;
42244;SDS011;27912;51.828;5.688;2022-09-13T01:14:40;11.50;;;9.73;;
42244;SDS011;27912;51.828;5.688;2022-09-13T01:17:07;9.77;;;8.70;;
42244;SDS011;27912;51.828;5.688;2022-09-13T01:19:33;12.35;;;9.80;;
42244;SDS011;27912;51.828;5.688;2022-09-13T01:27:44;11.65;;;9.73;;
42244;SDS011;27912;51.828;5.688;2022-09-13T01:30:24;11.10;;;9.18;;
42244;SDS011;27912;51.828;5.688;2022-09-13T01:33:00;10.52;;;9.43;;
42244;SDS011;27912;51.828;5.688;2022-09-13T01:35:47;13.40;;;10.02;;
42244;SDS011;27912;51.828;5.688;2022-09-13T01:43:40;14.75;;;10.30;;
42244;SDS011;27912;51.828;5.688;2022-09-13T01:54:31;11.57;;;8.20;;
42244;SDS011;27912;51.828;5.688;2022-09-13T01:59:44;12.48;;;9.35;;
42244;SDS011;27912;51.828;5.688;2022-09-13T02:02:22;12.15;;;9.10;;
42244;SDS011;27912;51.828;5.688;2022-09-13T02:04:57;12.60;;;9.05;;
42244;SDS011;27912;51.828;5.688;2022-09-13T02:07:30;10.93;;;9.63;;
42244;SDS011;27912;51.828;5.688;2022-09-13T02:10:14;10.95;;;9.15;;
42244;SDS011;27912;51.828;5.688;2022-09-13T02:12:53;12.77;;;9.98;;
42244;SDS011;27912;51.828;5.688;2022-09-13T02:15:22;10.75;;;8.57;;
42244;SDS011;27912;51.828;5.688;2022-09-13T02:18:04;12.10;;;9.52;;
42244;SDS011;27912;51.828;5.688;2022-09-13T02:20:35;12.52;;;9.40;;
42244;SDS011;27912;51.828;5.688;2022-09-13T02:23:08;10.35;;;8.90;;
42244;SDS011;27912;51.828;5.688;2022-09-13T02:25:42;10.23;;;8.45;;
42244;SDS011;27912;51.828;5.688;2022-09-13T02:28:11;10.00;;;8.60;;
42244;SDS011;27912;51.828;5.688;2022-09-13T02:30:42;11.43;;;9.18;;
42244;SDS011;27912;51.828;5.688;2022-09-13T02:33:16;10.52;;;8.68;;
42244;SDS011;27912;51.828;5.688;2022-09-13T02:35:55;10.75;;;8.57;;
42244;SDS011;27912;51.828;5.688;2022-09-13T02:38:26;10.45;;;8.25;;
42244;SDS011;27912;51.828;5.688;2022-09-13T02:41:08;10.27;;;8.23;;
42244;SDS011;27912;51.828;5.688;2022-09-13T02:43:51;10.82;;;8.35;;
42244;SDS011;27912;51.828;5.688;2022-09-13T02:46:28;10.68;;;7.78;;
42244;SDS011;27912;51.828;5.688;2022-09-13T02:49:12;10.30;;;8.50;;
42244;SDS011;27912;51.828;5.688;2022-09-13T02:51:44;14.57;;;9.45;;
42244;SDS011;27912;51.828;5.688;2022-09-13T02:54:32;12.45;;;8.82;;
42244;SDS011;27912;51.828;5.688;2022-09-13T02:57:12;9.77;;;8.63;;
42244;SDS011;27912;51.828;5.688;2022-09-13T02:59:44;10.70;;;9.23;;
42244;SDS011;27912;51.828;5.688;2022-09-13T03:02:13;11.50;;;9.90;;
42244;SDS011;27912;51.828;5.688;2022-09-13T03:04:41;10.73;;;9.27;;
42244;SDS011;27912;51.828;5.688;2022-09-13T03:07:10;11.05;;;9.63;;
42244;SDS011;27912;51.828;5.688;2022-09-13T03:09:38;11.23;;;9.57;;
42244;SDS011;27912;51.828;5.688;2022-09-13T03:15:16;14.60;;;10.45;;
42244;SDS011;27912;51.828;5.688;2022-09-13T03:21:22;18.88;;;9.45;;
42244;SDS011;27912;51.828;5.688;2022-09-13T03:24:17;12.85;;;10.15;;
42244;SDS011;27912;51.828;5.688;2022-09-13T03:30:03;13.50;;;9.95;;
42244;SDS011;27912;51.828;5.688;2022-09-13T03:32:35;13.18;;;10.13;;
42244;SDS011;27912;51.828;5.688;2022-09-13T03:37:47;15.73;;;9.45;;
42244;SDS011;27912;51.828;5.688;2022-09-13T03:43:29;13.00;;;9.73;;
42244;SDS011;27912;51.828;5.688;2022-09-13T03:46:08;13.98;;;10.55;;
42244;SDS011;27912;51.828;5.688;2022-09-13T03:48:50;11.57;;;8.63;;
42244;SDS011;27912;51.828;5.688;2022-09-13T03:51:16;12.45;;;10.02;;
42244;SDS011;27912;51.828;5.688;2022-09-13T03:53:45;14.90;;;10.05;;
42244;SDS011;27912;51.828;5.688;2022-09-13T03:56:19;11.95;;;9.38;;
42244;SDS011;27912;51.828;5.688;2022-09-13T03:58:45;13.23;;;10.20;;
42244;SDS011;27912;51.828;5.688;2022-09-13T04:01:12;16.40;;;10.13;;
42244;SDS011;27912;51.828;5.688;2022-09-13T04:03:38;15.15;;;10.38;;
42244;SDS011;27912;51.828;5.688;2022-09-13T04:06:04;12.27;;;9.77;;
42244;SDS011;27912;51.828;5.688;2022-09-13T04:08:31;14.40;;;11.00;;
42244;SDS011;27912;51.828;5.688;2022-09-13T04:10:57;15.48;;;10.80;;
42244;SDS011;27912;51.828;5.688;2022-09-13T04:13:23;13.70;;;10.73;;
42244;SDS011;27912;51.828;5.688;2022-09-13T04:15:48;16.67;;;11.25;;
42244;SDS011;27912;51.828;5.688;2022-09-13T04:18:15;14.43;;;11.63;;
42244;SDS011;27912;51.828;5.688;2022-09-13T04:20:40;13.35;;;10.75;;
42244;SDS011;27912;51.828;5.688;2022-09-13T04:23:06;13.55;;;10.50;;
42244;SDS011;27912;51.828;5.688;2022-09-13T04:25:31;14.88;;;10.20;;
42244;SDS011;27912;51.828;5.688;2022-09-13T04:27:57;15.90;;;10.82;;
42244;SDS011;27912;51.828;5.688;2022-09-13T04:30:24;14.27;;;10.70;;
42244;SDS011;27912;51.828;5.688;2022-09-13T04:32:50;11.15;;;9.88;;
42244;SDS011;27912;51.828;5.688;2022-09-13T04:35:16;15.15;;;11.00;;
42244;SDS011;27912;51.828;5.688;2022-09-13T04:37:43;13.20;;;10.30;;
42244;SDS011;27912;51.828;5.688;2022-09-13T04:40:10;15.93;;;11.07;;
42244;SDS011;27912;51.828;5.688;2022-09-13T04:42:36;12.73;;;10.85;;
42244;SDS011;27912;51.828;5.688;2022-09-13T04:45:01;14.93;;;11.50;;
42244;SDS011;27912;51.828;5.688;2022-09-13T04:47:27;21.77;;;12.68;;
42244;SDS011;27912;51.828;5.688;2022-09-13T04:49:53;14.55;;;11.65;;
42244;SDS011;27912;51.828;5.688;2022-09-13T04:52:19;15.70;;;12.75;;
42244;SDS011;27912;51.828;5.688;2022-09-13T04:54:44;15.00;;;11.93;;
42244;SDS011;27912;51.828;5.688;2022-09-13T04:57:12;13.60;;;11.02;;
42244;SDS011;27912;51.828;5.688;2022-09-13T04:59:38;16.70;;;12.40;;
42244;SDS011;27912;51.828;5.688;2022-09-13T05:02:04;15.15;;;11.90;;
42244;SDS011;27912;51.828;5.688;2022-09-13T05:04:30;18.35;;;12.57;;
42244;SDS011;27912;51.828;5.688;2022-09-13T05:06:55;23.25;;;12.00;;
42244;SDS011;27912;51.828;5.688;2022-09-13T05:09:22;17.27;;;12.27;;
42244;SDS011;27912;51.828;5.688;2022-09-13T05:11:48;13.77;;;11.13;;
42244;SDS011;27912;51.828;5.688;2022-09-13T05:14:14;18.23;;;11.95;;
42244;SDS011;27912;51.828;5.688;2022-09-13T05:16:39;18.88;;;12.60;;
42244;SDS011;27912;51.828;5.688;2022-09-13T05:19:05;17.25;;;13.18;;
42244;SDS011;27912;51.828;5.688;2022-09-13T05:21:30;14.63;;;12.52;;
42244;SDS011;27912;51.828;5.688;2022-09-13T05:23:56;16.23;;;12.65;;
42244;SDS011;27912;51.828;5.688;2022-09-13T05:26:23;21.45;;;12.30;;
42244;SDS011;27912;51.828;5.688;2022-09-13T05:28:50;16.98;;;11.98;;
42244;SDS011;27912;51.828;5.688;2022-09-13T05:33:42;18.98;;;13.77;;
42244;SDS011;27912;51.828;5.688;2022-09-13T05:36:10;18.45;;;12.70;;
42244;SDS011;27912;51.828;5.688;2022-09-13T05:38:35;18.85;;;12.63;;
42244;SDS011;27912;51.828;5.688;2022-09-13T05:41:01;16.48;;;13.38;;
42244;SDS011;27912;51.828;5.688;2022-09-13T05:43:30;16.42;;;13.32;;
42244;SDS011;27912;51.828;5.688;2022-09-13T05:46:16;20.67;;;13.52;;
42244;SDS011;27912;51.828;5.688;2022-09-13T05:48:43;18.35;;;13.68;;
42244;SDS011;27912;51.828;5.688;2022-09-13T05:53:40;16.48;;;12.85;;
42244;SDS011;27912;51.828;5.688;2022-09-13T05:56:07;16.92;;;12.95;;
42244;SDS011;27912;51.828;5.688;2022-09-13T05:58:37;15.95;;;12.73;;
42244;SDS011;27912;51.828;5.688;2022-09-13T06:01:03;19.73;;;13.15;;
42244;SDS011;27912;51.828;5.688;2022-09-13T06:03:29;17.02;;;11.90;;
42244;SDS011;27912;51.828;5.688;2022-09-13T06:05:55;17.35;;;12.73;;
42244;SDS011;27912;51.828;5.688;2022-09-13T06:08:25;17.50;;;13.65;;
42244;SDS011;27912;51.828;5.688;2022-09-13T06:10:54;17.93;;;12.23;;
42244;SDS011;27912;51.828;5.688;2022-09-13T06:13:21;15.48;;;12.95;;
42244;SDS011;27912;51.828;5.688;2022-09-13T06:15:47;15.02;;;12.85;;
42244;SDS011;27912;51.828;5.688;2022-09-13T06:18:12;18.55;;;13.73;;
42244;SDS011;27912;51.828;5.688;2022-09-13T06:20:38;18.23;;;12.85;;
42244;SDS011;27912;51.828;5.688;2022-09-13T06:23:03;19.10;;;12.63;;
42244;SDS011;27912;51.828;5.688;2022-09-13T06:25:29;18.85;;;13.30;;
42244;SDS011;27912;51.828;5.688;2022-09-13T06:27:55;19.92;;;12.70;;
42244;SDS011;27912;51.828;5.688;2022-09-13T06:30:20;15.85;;;12.63;;
42244;SDS011;27912;51.828;5.688;2022-09-13T06:32:46;20.25;;;14.38;;
42244;SDS011;27912;51.828;5.688;2022-09-13T06:35:11;19.50;;;13.70;;
42244;SDS011;27912;51.828;5.688;2022-09-13T06:37:37;16.83;;;13.35;;
42244;SDS011;27912;51.828;5.688;2022-09-13T06:40:02;18.55;;;12.77;;
42244;SDS011;27912;51.828;5.688;2022-09-13T06:42:29;19.25;;;13.77;;
42244;SDS011;27912;51.828;5.688;2022-09-13T06:44:57;20.58;;;14.65;;
42244;SDS011;27912;51.828;5.688;2022-09-13T06:47:22;21.45;;;13.50;;
42244;SDS011;27912;51.828;5.688;2022-09-13T06:49:48;19.92;;;14.43;;
42244;SDS011;27912;51.828;5.688;2022-09-13T06:52:13;20.23;;;15.07;;
42244;SDS011;27912;51.828;5.688;2022-09-13T06:54:39;22.60;;;15.40;;
42244;SDS011;27912;51.828;5.688;2022-09-13T06:57:04;19.83;;;14.98;;
42244;SDS011;27912;51.828;5.688;2022-09-13T06:59:30;20.23;;;15.02;;
42244;SDS011;27912;51.828;5.688;2022-09-13T07:01:56;20.17;;;16.15;;
42244;SDS011;27912;51.828;5.688;2022-09-13T07:04:21;20.30;;;16.17;;
42244;SDS011;27912;51.828;5.688;2022-09-13T07:06:47;22.00;;;16.02;;
42244;SDS011;27912;51.828;5.688;2022-09-13T07:09:15;19.42;;;15.43;;
42244;SDS011;27912;51.828;5.688;2022-09-13T07:11:42;21.60;;;16.23;;
42244;SDS011;27912;51.828;5.688;2022-09-13T07:14:12;20.15;;;15.48;;
42244;SDS011;27912;51.828;5.688;2022-09-13T07:16:39;23.75;;;17.08;;
42244;SDS011;27912;51.828;5.688;2022-09-13T07:19:05;21.42;;;17.10;;
42244;SDS011;27912;51.828;5.688;2022-09-13T07:21:36;23.15;;;17.17;;
42244;SDS011;27912;51.828;5.688;2022-09-13T07:24:01;25.08;;;20.17;;
42244;SDS011;27912;51.828;5.688;2022-09-13T07:26:27;25.15;;;19.80;;
42244;SDS011;27912;51.828;5.688;2022-09-13T07:28:54;25.90;;;20.38;;
42244;SDS011;27912;51.828;5.688;2022-09-13T07:31:22;27.27;;;20.83;;
42244;SDS011;27912;51.828;5.688;2022-09-13T07:33:53;27.30;;;20.65;;
42244;SDS011;27912;51.828;5.688;2022-09-13T07:36:20;29.60;;;21.38;;
42244;SDS011;27912;51.828;5.688;2022-09-13T07:38:46;30.85;;;21.92;;
42244;SDS011;27912;51.828;5.688;2022-09-13T07:41:16;34.88;;;21.70;;
42244;SDS011;27912;51.828;5.688;2022-09-13T07:43:43;30.45;;;21.73;;
42244;SDS011;27912;51.828;5.688;2022-09-13T07:46:13;33.08;;;22.33;;
42244;SDS011;27912;51.828;5.688;2022-09-13T07:51:12;34.58;;;22.38;;
42244;SDS011;27912;51.828;5.688;2022-09-13T07:53:42;31.33;;;23.20;;
42244;SDS011;27912;51.828;5.688;2022-09-13T07:56:14;34.03;;;24.08;;
42244;SDS011;27912;51.828;5.688;2022-09-13T07:58:45;34.25;;;24.90;;
42244;SDS011;27912;51.828;5.688;2022-09-13T08:01:18;33.00;;;23.98;;
42244;SDS011;27912;51.828;5.688;2022-09-13T08:03:51;31.45;;;23.00;;
42244;SDS011;27912;51.828;5.688;2022-09-13T08:06:18;28.30;;;22.13;;
42244;SDS011;27912;51.828;5.688;2022-09-13T08:08:44;27.40;;;19.80;;
42244;SDS011;27912;51.828;5.688;2022-09-13T08:11:10;30.75;;;21.17;;
42244;SDS011;27912;51.828;5.688;2022-09-13T08:13:40;27.33;;;19.35;;
42244;SDS011;27912;51.828;5.688;2022-09-13T08:16:06;29.05;;;19.63;;
42244;SDS011;27912;51.828;5.688;2022-09-13T08:18:32;26.48;;;18.85;;
42244;SDS011;27912;51.828;5.688;2022-09-13T08:20:58;28.67;;;19.05;;
42244;SDS011;27912;51.828;5.688;2022-09-13T08:23:24;23.55;;;18.33;;
42244;SDS011;27912;51.828;5.688;2022-09-13T08:25:50;26.52;;;19.83;;
42244;SDS011;27912;51.828;5.688;2022-09-13T08:28:17;26.40;;;18.90;;
42244;SDS011;27912;51.828;5.688;2022-09-13T08:30:45;24.30;;;17.33;;
42244;SDS011;27912;51.828;5.688;2022-09-13T08:33:11;20.40;;;16.65;;
42244;SDS011;27912;51.828;5.688;2022-09-13T08:35:37;20.52;;;15.65;;
42244;SDS011;27912;51.828;5.688;2022-09-13T08:38:03;20.40;;;15.52;;
42244;SDS011;27912;51.828;5.688;2022-09-13T08:40:31;18.52;;;13.27;;
42244;SDS011;27912;51.828;5.688;2022-09-13T08:45:50;19.63;;;13.63;;
42244;SDS011;27912;51.828;5.688;2022-09-13T08:48:35;19.25;;;13.27;;
42244;SDS011;27912;51.828;5.688;2022-09-13T08:51:05;17.58;;;12.73;;
42244;SDS011;27912;51.828;5.688;2022-09-13T08:53:43;17.45;;;13.32;;
42244;SDS011;27912;51.828;5.688;2022-09-13T08:56:12;16.88;;;12.05;;
42244;SDS011;27912;51.828;5.688;2022-09-13T09:07:01;15.13;;;10.80;;
42244;SDS011;27912;51.828;5.688;2022-09-13T09:09:36;17.20;;;11.90;;
42244;SDS011;27912;51.828;5.688;2022-09-13T09:12:29;15.35;;;10.60;;
42244;SDS011;27912;51.828;5.688;2022-09-13T09:15:38;12.52;;;9.93;;
42244;SDS011;27912;51.828;5.688;2022-09-13T09:22:58;13.32;;;8.48;;
42244;SDS011;27912;51.828;5.688;2022-09-13T09:25:27;10.48;;;8.77;;
42244;SDS011;27912;51.828;5.688;2022-09-13T09:27:52;12.38;;;8.18;;
42244;SDS011;27912;51.828;5.688;2022-09-13T09:30:20;10.63;;;8.23;;
42244;SDS011;27912;51.828;5.688;2022-09-13T09:32:47;10.55;;;8.05;;
42244;SDS011;27912;51.828;5.688;2022-09-13T09:35:45;12.23;;;9.02;;
42244;SDS011;27912;51.828;5.688;2022-09-13T09:41:13;12.23;;;8.30;;
42244;SDS011;27912;51.828;5.688;2022-09-13T09:43:47;13.68;;;10.05;;
42244;SDS011;27912;51.828;5.688;2022-09-13T09:46:20;15.40;;;8.77;;
42244;SDS011;27912;51.828;5.688;2022-09-13T09:49:10;9.73;;;7.28;;
42244;SDS011;27912;51.828;5.688;2022-09-13T09:51:57;10.07;;;7.75;;
42244;SDS011;27912;51.828;5.688;2022-09-13T09:54:25;10.57;;;7.35;;
42244;SDS011;27912;51.828;5.688;2022-09-13T09:56:54;9.23;;;5.97;;
42244;SDS011;27912;51.828;5.688;2022-09-13T09:59:27;11.05;;;6.25;;
42244;SDS011;27912;51.828;5.688;2022-09-13T10:02:00;9.30;;;5.65;;
42244;SDS011;27912;51.828;5.688;2022-09-13T10:04:38;8.20;;;5.53;;
42244;SDS011;27912;51.828;5.688;2022-09-13T10:07:24;6.05;;;4.32;;
42244;SDS011;27912;51.828;5.688;2022-09-13T10:10:00;6.53;;;3.83;;
42244;SDS011;27912;51.828;5.688;2022-09-13T10:15:14;5.63;;;3.22;;
42244;SDS011;27912;51.828;5.688;2022-09-13T10:17:42;5.57;;;3.13;;
42244;SDS011;27912;51.828;5.688;2022-09-13T10:20:27;4.25;;;3.38;;
42244;SDS011;27912;51.828;5.688;2022-09-13T10:25:36;6.35;;;4.07;;
42244;SDS011;27912;51.828;5.688;2022-09-13T10:28:02;5.60;;;4.05;;
42244;SDS011;27912;51.828;5.688;2022-09-13T10:30:39;7.00;;;3.90;;
42244;SDS011;27912;51.828;5.688;2022-09-13T10:33:22;7.30;;;4.35;;
42244;SDS011;27912;51.828;5.688;2022-09-13T10:35:51;5.90;;;3.80;;
42244;SDS011;27912;51.828;5.688;2022-09-13T10:38:29;4.55;;;2.92;;
42244;SDS011;27912;51.828;5.688;2022-09-13T10:40:58;5.53;;;3.40;;
42244;SDS011;27912;51.828;5.688;2022-09-13T10:43:26;5.55;;;3.92;;
42244;SDS011;27912;51.828;5.688;2022-09-13T10:45:53;4.78;;;3.53;;
42244;SDS011;27912;51.828;5.688;2022-09-13T10:48:20;5.43;;;4.03;;
42244;SDS011;27912;51.828;5.688;2022-09-13T10:50:59;5.35;;;4.03;;
42244;SDS011;27912;51.828;5.688;2022-09-13T10:53:37;5.20;;;3.95;;
42244;SDS011;27912;51.828;5.688;2022-09-13T10:56:04;6.55;;;3.92;;
42244;SDS011;27912;51.828;5.688;2022-09-13T10:58:43;6.47;;;3.75;;
42244;SDS011;27912;51.828;5.688;2022-09-13T11:04:03;6.05;;;3.42;;
42244;SDS011;27912;51.828;5.688;2022-09-13T11:09:54;5.63;;;3.20;;
42244;SDS011;27912;51.828;5.688;2022-09-13T11:12:42;7.07;;;3.55;;
42244;SDS011;27912;51.828;5.688;2022-09-13T11:15:20;6.40;;;4.13;;
42244;SDS011;27912;51.828;5.688;2022-09-13T11:21:00;5.60;;;2.90;;
42244;SDS011;27912;51.828;5.688;2022-09-13T11:26:40;5.50;;;2.17;;
42244;SDS011;27912;51.828;5.688;2022-09-13T11:32:57;1.90;;;1.00;;
42244;SDS011;27912;51.828;5.688;2022-09-13T11:35:49;3.85;;;1.50;;
42244;SDS011;27912;51.828;5.688;2022-09-13T11:41:36;6.57;;;1.75;;
42244;SDS011;27912;51.828;5.688;2022-09-13T11:44:20;4.22;;;1.55;;
42244;SDS011;27912;51.828;5.688;2022-09-13T11:47:06;3.40;;;1.20;;
42244;SDS011;27912;51.828;5.688;2022-09-13T11:55:53;3.38;;;1.55;;
42244;SDS011;27912;51.828;5.688;2022-09-13T11:58:33;3.03;;;1.27;;
42244;SDS011;27912;51.828;5.688;2022-09-13T12:01:05;2.17;;;0.90;;
42244;SDS011;27912;51.828;5.688;2022-09-13T12:06:41;2.50;;;1.10;;
42244;SDS011;27912;51.828;5.688;2022-09-13T12:09:21;3.10;;;1.05;;
42244;SDS011;27912;51.828;5.688;2022-09-13T12:11:52;3.67;;;1.02;;
42244;SDS011;27912;51.828;5.688;2022-09-13T12:14:25;2.53;;;0.90;;
42244;SDS011;27912;51.828;5.688;2022-09-13T12:16:58;2.15;;;0.70;;
42244;SDS011;27912;51.828;5.688;2022-09-13T12:19:44;2.75;;;0.60;;
42244;SDS011;27912;51.828;5.688;2022-09-13T12:22:11;3.30;;;0.52;;
42244;SDS011;27912;51.828;5.688;2022-09-13T12:24:42;3.05;;;0.90;;
42244;SDS011;27912;51.828;5.688;2022-09-13T12:30:08;2.72;;;0.60;;
42244;SDS011;27912;51.828;5.688;2022-09-13T12:32:43;1.50;;;0.70;;
42244;SDS011;27912;51.828;5.688;2022-09-13T12:51:22;3.13;;;0.50;;
42244;SDS011;27912;51.828;5.688;2022-09-13T13:00:07;3.67;;;0.50;;
42244;SDS011;27912;51.828;5.688;2022-09-13T13:05:40;1.65;;;0.40;;
42244;SDS011;27912;51.828;5.688;2022-09-13T13:11:11;2.72;;;0.43;;
42244;SDS011;27912;51.828;5.688;2022-09-13T13:13:39;1.45;;;0.40;;
42244;SDS011;27912;51.828;5.688;2022-09-13T13:18:56;1.92;;;0.30;;
42244;SDS011;27912;51.828;5.688;2022-09-13T13:26:49;1.70;;;0.50;;
42244;SDS011;27912;51.828;5.688;2022-09-13T13:29:30;1.52;;;0.45;;
42244;SDS011;27912;51.828;5.688;2022-09-13T13:34:47;1.50;;;0.60;;
42244;SDS011;27912;51.828;5.688;2022-09-13T13:39:42;2.20;;;0.50;;
42244;SDS011;27912;51.828;5.688;2022-09-13T13:42:11;1.52;;;0.40;;
42244;SDS011;27912;51.828;5.688;2022-09-13T13:49:48;1.75;;;0.30;;
42244;SDS011;27912;51.828;5.688;2022-09-13T13:59:49;3.65;;;0.63;;
42244;SDS011;27912;51.828;5.688;2022-09-13T14:02:22;1.67;;;0.30;;
42244;SDS011;27912;51.828;5.688;2022-09-13T14:10:24;0.95;;;0.30;;
42244;SDS011;27912;51.828;5.688;2022-09-13T14:13:16;2.78;;;0.38;;
42244;SDS011;27912;51.828;5.688;2022-09-13T14:16:04;1.58;;;0.40;;
42244;SDS011;27912;51.828;5.688;2022-09-13T14:18:51;3.00;;;0.47;;
42244;SDS011;27912;51.828;5.688;2022-09-13T14:21:25;2.95;;;0.55;;
42244;SDS011;27912;51.828;5.688;2022-09-13T14:26:50;2.40;;;0.30;;
42244;SDS011;27912;51.828;5.688;2022-09-13T14:29:19;3.10;;;0.30;;
42244;SDS011;27912;51.828;5.688;2022-09-13T14:31:49;2.30;;;0.30;;
42244;SDS011;27912;51.828;5.688;2022-09-13T14:34:21;2.85;;;0.40;;
42244;SDS011;27912;51.828;5.688;2022-09-13T14:36:55;1.45;;;0.40;;
42244;SDS011;27912;51.828;5.688;2022-09-13T14:39:23;3.63;;;0.30;;
42244;SDS011;27912;51.828;5.688;2022-09-13T14:42:36;3.80;;;0.30;;
42244;SDS011;27912;51.828;5.688;2022-09-13T14:44:43;2.83;;;0.38;;
42244;SDS011;27912;51.828;5.688;2022-09-13T14:47:26;1.42;;;0.47;;
42244;SDS011;27912;51.828;5.688;2022-09-13T14:50:07;1.10;;;0.30;;
42244;SDS011;27912;51.828;5.688;2022-09-13T14:52:46;2.05;;;0.40;;
42244;SDS011;27912;51.828;5.688;2022-09-13T14:55:16;1.95;;;0.30;;
42244;SDS011;27912;51.828;5.688;2022-09-13T14:57:46;2.92;;;0.30;;
42244;SDS011;27912;51.828;5.688;2022-09-13T15:00:20;1.70;;;0.40;;
42244;SDS011;27912;51.828;5.688;2022-09-13T15:02:49;1.73;;;0.35;;
42244;SDS011;27912;51.828;5.688;2022-09-13T15:05:17;1.67;;;0.40;;
42244;SDS011;27912;51.828;5.688;2022-09-13T15:07:44;1.52;;;0.40;;
42244;SDS011;27912;51.828;5.688;2022-09-13T15:23:28;1.77;;;0.40;;
42244;SDS011;27912;51.828;5.688;2022-09-13T15:28:35;3.10;;;0.35;;
42244;SDS011;27912;51.828;5.688;2022-09-13T15:31:09;7.00;;;0.50;;
42244;SDS011;27912;51.828;5.688;2022-09-13T15:33:43;2.42;;;0.30;;
42244;SDS011;27912;51.828;5.688;2022-09-13T15:36:13;5.03;;;0.40;;
42244;SDS011;27912;51.828;5.688;2022-09-13T15:41:34;3.55;;;0.30;;
42244;SDS011;27912;51.828;5.688;2022-09-13T15:44:03;2.03;;;0.50;;
42244;SDS011;27912;51.828;5.688;2022-09-13T15:46:30;1.80;;;0.30;;
42244;SDS011;27912;51.828;5.688;2022-09-13T15:49:00;2.38;;;0.40;;
42244;SDS011;27912;51.828;5.688;2022-09-13T15:51:28;2.05;;;0.40;;
42244;SDS011;27912;51.828;5.688;2022-09-13T15:53:54;1.70;;;0.40;;
42244;SDS011;27912;51.828;5.688;2022-09-13T15:56:21;3.60;;;0.50;;
42244;SDS011;27912;51.828;5.688;2022-09-13T15:58:52;1.90;;;0.40;;
42244;SDS011;27912;51.828;5.688;2022-09-13T16:01:17;2.55;;;0.40;;
42244;SDS011;27912;51.828;5.688;2022-09-13T16:03:43;3.53;;;0.43;;
42244;SDS011;27912;51.828;5.688;2022-09-13T16:06:09;2.72;;;0.50;;
42244;SDS011;27912;51.828;5.688;2022-09-13T16:08:38;2.67;;;0.32;;
42244;SDS011;27912;51.828;5.688;2022-09-13T16:11:04;3.63;;;0.30;;
42244;SDS011;27912;51.828;5.688;2022-09-13T16:13:30;3.28;;;0.40;;
42244;SDS011;27912;51.828;5.688;2022-09-13T16:15:56;2.45;;;0.25;;
42244;SDS011;27912;51.828;5.688;2022-09-13T16:18:21;2.17;;;0.28;;
42244;SDS011;27912;51.828;5.688;2022-09-13T16:20:47;2.50;;;0.30;;
42244;SDS011;27912;51.828;5.688;2022-09-13T16:23:14;2.28;;;0.20;;
42244;SDS011;27912;51.828;5.688;2022-09-13T16:25:39;3.20;;;0.30;;
42244;SDS011;27912;51.828;5.688;2022-09-13T16:28:05;2.22;;;0.22;;
42244;SDS011;27912;51.828;5.688;2022-09-13T16:30:31;2.35;;;0.30;;
42244;SDS011;27912;51.828;5.688;2022-09-13T16:32:57;3.88;;;0.50;;
42244;SDS011;27912;51.828;5.688;2022-09-13T16:35:28;2.33;;;0.30;;
42244;SDS011;27912;51.828;5.688;2022-09-13T16:37:55;2.45;;;0.30;;
42244;SDS011;27912;51.828;5.688;2022-09-13T16:40:21;2.42;;;0.30;;
42244;SDS011;27912;51.828;5.688;2022-09-13T16:42:47;3.28;;;0.40;;
42244;SDS011;27912;51.828;5.688;2022-09-13T16:45:13;7.57;;;0.40;;
42244;SDS011;27912;51.828;5.688;2022-09-13T16:47:39;3.33;;;0.20;;
42244;SDS011;27912;51.828;5.688;2022-09-13T16:50:05;2.83;;;0.20;;
42244;SDS011;27912;51.828;5.688;2022-09-13T16:52:31;3.42;;;0.20;;
42244;SDS011;27912;51.828;5.688;2022-09-13T16:54:59;1.45;;;0.28;;
42244;SDS011;27912;51.828;5.688;2022-09-13T16:57:25;2.28;;;0.20;;
42244;SDS011;27912;51.828;5.688;2022-09-13T16:59:51;1.30;;;0.20;;
42244;SDS011;27912;51.828;5.688;2022-09-13T17:02:18;4.68;;;0.20;;
42244;SDS011;27912;51.828;5.688;2022-09-13T17:04:44;3.30;;;0.47;;
42244;SDS011;27912;51.828;5.688;2022-09-13T17:07:10;4.35;;;0.52;;
42244;SDS011;27912;51.828;5.688;2022-09-13T17:09:36;2.75;;;0.20;;
42244;SDS011;27912;51.828;5.688;2022-09-13T17:12:04;1.42;;;0.20;;
42244;SDS011;27912;51.828;5.688;2022-09-13T17:14:30;2.75;;;0.20;;
42244;SDS011;27912;51.828;5.688;2022-09-13T17:16:57;4.53;;;0.52;;
42244;SDS011;27912;51.828;5.688;2022-09-13T17:19:25;4.15;;;0.30;;
42244;SDS011;27912;51.828;5.688;2022-09-13T17:21:55;1.70;;;0.15;;
42244;SDS011;27912;51.828;5.688;2022-09-13T17:24:25;1.95;;;0.20;;
42244;SDS011;27912;51.828;5.688;2022-09-13T17:26:52;2.78;;;0.47;;
42244;SDS011;27912;51.828;5.688;2022-09-13T17:29:18;2.65;;;0.20;;
42244;SDS011;27912;51.828;5.688;2022-09-13T17:31:44;3.28;;;0.30;;
42244;SDS011;27912;51.828;5.688;2022-09-13T17:34:10;4.05;;;0.30;;
42244;SDS011;27912;51.828;5.688;2022-09-13T17:36:38;1.30;;;0.15;;
42244;SDS011;27912;51.828;5.688;2022-09-13T17:39:05;1.85;;;0.43;;
42244;SDS011;27912;51.828;5.688;2022-09-13T17:41:31;10.25;;;0.52;;
42244;SDS011;27912;51.828;5.688;2022-09-13T17:43:57;3.60;;;0.30;;
42244;SDS011;27912;51.828;5.688;2022-09-13T17:46:24;0.90;;;0.20;;
42244;SDS011;27912;51.828;5.688;2022-09-13T17:48:52;2.15;;;0.28;;
42244;SDS011;27912;51.828;5.688;2022-09-13T17:51:20;2.95;;;0.22;;
42244;SDS011;27912;51.828;5.688;2022-09-13T17:53:48;4.05;;;0.30;;
42244;SDS011;27912;51.828;5.688;2022-09-13T17:56:19;5.95;;;1.65;;